로스앤젤레스, CA

10:43 PM PDT on May 22, 2015 (GMT -0700)
Natural History Museum | | Change Station
CLOSE
Current Station
Personal Weather Stations
Location: Los Angeles, CA
Elevation: 207 ft
Nearby Weather Stations

Elev 207 ft 34.02 °N, 118.29 °W | Updated 5 seconds ago

흐림
흐림
61.8 °F
Feels Like 61.8 °F
N
0.0
바람 Variable 바람 from 북북동
Gusts 1.0 mph

오늘
High -- | Low -- °F
--% Chance of Precip.
어제
High -- | Low -- °F
Precip. -- 인치
5:47 AM 7:52 PM
초승달, 27% visible
기압 30.06 인치
가시도 10.0 마일
구름 흐림 5000 ft
이슬점 53 °F
습도 72%
Rainfall 0.00 인치
Snow Depth Not available.
자외선 지수 0 out of 12
Pollen 4.00 out of 12
에어 품질 Not available.
Flu Activity Sporadic
METAR KCQT 230447Z AUTO 00000KT 10SM OVC050 17/11 A3006 RMK AO2 SLP178 T01720106

More Conditions Fewer Conditions

기압 30.06 인치
가시도 10.0 마일
구름 흐림 5000 ft
이슬점 53 °F
습도 72%
Rainfall 0.00 인치
Snow Depth Not available.
자외선 지수 0 out of 12
Pollen 4.00 out of 12
에어 품질 Not available.
Flu Activity Sporadic
METAR KCQT 230447Z AUTO 00000KT 10SM OVC050 17/11 A3006 RMK AO2 SLP178 T01720106

More Conditions Fewer Conditions

10-Day Weather Forecast

Almanac

천문

May. 22, 2015 Rise Set
Actual Time
Civil Twilight
Nautical Twilight
Astronomical Twilight
Moon
Length Of Visible Light
낮 길이
Tomorrow will be .
, % of the Moon is Illuminated

Today's Extremes

State Highs State Lows

Community

WunderPhotos

Upload Photos

1,823,393 photos uploaded!

WunderBlogs® & News

Nearby

에어 품질

  에어 품질 AQ Index Pollutant
Not available.

Snow Depth

Station Depth Elevation

Earthquake Activity

City Distance Mag. Time & Date
Minimum magnitude displayed is 2.5.

Coastal Water Temperatures

장소 기온

Stations

Nearby Weather Stations

Station Location Temp 풍속냉각지수 이슬점 습도 바람 Precip. Elev 업데이트 시각 Type